createdAt,value
2023-05-22T00:00:57.005Z,16.26
2023-05-22T00:01:58.856Z,16.26
2023-05-22T00:03:00.838Z,16.25
2023-05-22T00:04:02.236Z,16.25
2023-05-22T00:05:04.003Z,16.24
2023-05-22T00:06:05.709Z,16.24
2023-05-22T00:07:07.418Z,16.23
2023-05-22T00:08:09.152Z,16.23
2023-05-22T00:09:10.913Z,16.21
2023-05-22T00:10:12.636Z,16.21
2023-05-22T00:11:14.356Z,16.2
2023-05-22T00:12:16.098Z,16.19
2023-05-22T00:13:17.824Z,16.18
2023-05-22T00:14:19.556Z,16.17
2023-05-22T00:15:21.295Z,16.16
2023-05-22T00:16:23.263Z,16.16
2023-05-22T00:17:24.850Z,16.15
2023-05-22T00:18:26.533Z,16.14
2023-05-22T00:19:28.258Z,16.13
2023-05-22T00:20:30.098Z,16.13
2023-05-22T00:21:31.699Z,16.12
2023-05-22T00:22:33.414Z,16.11
2023-05-22T00:23:35.157Z,16.1
2023-05-22T00:24:36.901Z,16.1
2023-05-22T00:25:38.648Z,16.09
2023-05-22T00:26:40.371Z,16.09
2023-05-22T00:27:42.106Z,16.07
2023-05-22T00:28:43.813Z,16.07
2023-05-22T00:29:45.568Z,16.06
2023-05-22T00:30:47.285Z,16.05
2023-05-22T00:31:49.038Z,16.05
2023-05-22T00:32:50.839Z,16.04
2023-05-22T00:33:52.522Z,16.03
2023-05-22T00:34:54.228Z,16.03
2023-05-22T00:35:55.982Z,16.03
2023-05-22T00:36:57.712Z,16.02
2023-05-22T00:37:59.426Z,16.01
2023-05-22T00:39:01.162Z,16.01
2023-05-22T00:40:02.924Z,15.99
2023-05-22T00:41:04.651Z,15.99
2023-05-22T00:42:06.546Z,15.97
2023-05-22T00:43:08.082Z,15.96
2023-05-22T00:44:09.812Z,15.95
2023-05-22T00:45:11.592Z,15.95
2023-05-22T00:46:13.337Z,15.94
2023-05-22T00:47:15.087Z,15.93
2023-05-22T00:48:16.770Z,15.92
2023-05-22T00:49:18.542Z,15.92
2023-05-22T00:50:20.250Z,15.92
2023-05-22T00:51:21.967Z,15.91
2023-05-22T00:52:23.715Z,15.91
2023-05-22T00:53:25.443Z,15.9
2023-05-22T00:54:27.173Z,15.9
2023-05-22T00:55:28.955Z,15.89
2023-05-22T00:56:30.628Z,15.88
2023-05-22T00:57:32.379Z,15.89
2023-05-22T00:58:34.113Z,15.88
2023-05-22T00:59:35.832Z,15.88
2023-05-22T01:00:37.832Z,15.87
2023-05-22T01:01:39.349Z,15.86
2023-05-22T01:02:41.100Z,15.85
2023-05-22T01:03:42.855Z,15.85
2023-05-22T01:04:44.568Z,15.84
2023-05-22T01:05:46.258Z,15.82
2023-05-22T01:06:47.975Z,15.81
2023-05-22T01:07:49.722Z,15.8
2023-05-22T01:08:51.447Z,15.8
2023-05-22T01:09:53.183Z,15.78
2023-05-22T01:10:54.912Z,15.76
2023-05-22T01:11:56.652Z,15.76
2023-05-22T01:12:58.385Z,15.75
2023-05-22T01:14:00.138Z,15.74
2023-05-22T01:15:01.854Z,15.72
2023-05-22T01:16:03.635Z,15.71
2023-05-22T01:17:05.312Z,15.7
2023-05-22T01:18:07.122Z,15.69
2023-05-22T01:19:08.842Z,15.68
2023-05-22T01:20:10.559Z,15.66
2023-05-22T01:21:12.271Z,15.65
2023-05-22T01:22:13.985Z,15.64
2023-05-22T01:23:15.725Z,15.63
2023-05-22T01:24:17.440Z,15.62
2023-05-22T01:25:19.179Z,15.6
2023-05-22T01:26:20.926Z,15.59
2023-05-22T01:27:22.652Z,15.58
2023-05-22T01:28:24.414Z,15.57
2023-05-22T01:29:26.136Z,15.55
2023-05-22T01:30:27.861Z,15.53
2023-05-22T01:31:29.591Z,15.52
2023-05-22T01:32:31.359Z,15.51
2023-05-22T01:33:33.221Z,15.49
2023-05-22T01:34:34.788Z,15.48
2023-05-22T01:35:36.537Z,15.47
2023-05-22T01:36:38.259Z,15.47
2023-05-22T01:37:40.003Z,15.45
2023-05-22T01:38:41.722Z,15.44
2023-05-22T01:39:43.466Z,15.42
2023-05-22T01:40:45.213Z,15.41
2023-05-22T01:41:46.974Z,15.4
2023-05-22T01:42:48.689Z,15.39
2023-05-22T01:43:50.421Z,15.38
2023-05-22T01:44:52.135Z,15.36
2023-05-22T01:45:53.944Z,15.35
2023-05-22T01:46:55.622Z,15.34
2023-05-22T01:47:57.390Z,15.33
2023-05-22T01:48:59.109Z,15.31
2023-05-22T01:50:00.805Z,15.31
2023-05-22T01:51:02.535Z,15.3
2023-05-22T01:52:04.290Z,15.29
2023-05-22T01:53:06.013Z,15.29
2023-05-22T01:54:07.746Z,15.28
2023-05-22T01:55:09.518Z,15.28
2023-05-22T01:56:11.206Z,15.29
2023-05-22T01:57:12.963Z,15.27
2023-05-22T01:58:14.684Z,15.27
2023-05-22T01:59:16.433Z,15.28
2023-05-22T02:00:18.162Z,15.27
2023-05-22T02:01:19.969Z,15.28
2023-05-22T02:02:21.746Z,15.27
2023-05-22T02:03:23.573Z,15.27
2023-05-22T02:04:25.098Z,15.27
2023-05-22T02:05:26.809Z,15.27
2023-05-22T02:06:28.565Z,15.28
2023-05-22T02:07:30.277Z,15.27
2023-05-22T02:08:32.035Z,15.26
2023-05-22T02:09:33.763Z,15.27
2023-05-22T02:10:35.509Z,15.25
2023-05-22T02:11:37.327Z,15.25
2023-05-22T02:12:38.950Z,15.24
2023-05-22T02:13:40.689Z,15.23
2023-05-22T02:14:42.451Z,15.24
2023-05-22T02:15:44.208Z,15.22
2023-05-22T02:16:45.882Z,15.21
2023-05-22T02:17:47.673Z,15.21
2023-05-22T02:18:49.395Z,15.2
2023-05-22T02:19:51.120Z,15.2
2023-05-22T02:20:52.835Z,15.19
2023-05-22T02:21:54.568Z,15.18
2023-05-22T02:22:56.296Z,15.17
2023-05-22T02:23:58.059Z,15.16
2023-05-22T02:24:59.773Z,15.15
2023-05-22T02:26:01.490Z,15.14
2023-05-22T02:27:03.288Z,15.13
2023-05-22T02:28:05.131Z,15.12
2023-05-22T02:29:06.702Z,15.11
2023-05-22T02:30:08.434Z,15.1
2023-05-22T02:31:10.220Z,15.08
2023-05-22T02:32:11.940Z,15.08
2023-05-22T02:33:13.662Z,15.07
2023-05-22T02:34:15.387Z,15.06
2023-05-22T02:35:17.109Z,15.06
2023-05-22T02:36:18.856Z,15.06
2023-05-22T02:37:20.575Z,15.05
2023-05-22T02:38:22.324Z,15.06
2023-05-22T02:39:24.053Z,15.03
2023-05-22T02:40:25.779Z,15.03
2023-05-22T02:41:27.542Z,15.03
2023-05-22T02:42:29.262Z,15.02
2023-05-22T02:43:30.988Z,15.01
2023-05-22T02:44:32.730Z,15.01
2023-05-22T02:45:34.475Z,14.99
2023-05-22T02:46:36.238Z,15
2023-05-22T02:47:37.942Z,14.99
2023-05-22T02:48:39.660Z,14.98
2023-05-22T02:49:41.402Z,14.98
2023-05-22T02:50:43.122Z,14.98
2023-05-22T02:51:44.859Z,14.97
2023-05-22T02:52:46.577Z,14.98
2023-05-22T02:53:48.345Z,14.98
2023-05-22T02:54:50.045Z,14.97
2023-05-22T02:55:51.843Z,14.98
2023-05-22T02:56:53.531Z,14.98
2023-05-22T02:57:55.250Z,14.98
2023-05-22T02:58:56.997Z,14.97
2023-05-22T02:59:58.732Z,14.97
2023-05-22T03:01:00.460Z,14.96
2023-05-22T03:02:02.252Z,14.96
2023-05-22T03:03:03.939Z,14.95
2023-05-22T03:04:05.848Z,14.94
2023-05-22T03:05:07.401Z,14.93
2023-05-22T03:06:09.144Z,14.92
2023-05-22T03:07:10.860Z,14.91
2023-05-22T03:08:12.586Z,14.91
2023-05-22T03:09:14.355Z,14.9
2023-05-22T03:10:16.071Z,14.89
2023-05-22T03:11:17.792Z,14.89
2023-05-22T03:12:19.511Z,14.88
2023-05-22T03:13:21.252Z,14.87
2023-05-22T03:14:22.998Z,14.86
2023-05-22T03:15:24.729Z,14.86
2023-05-22T03:16:26.534Z,14.85
2023-05-22T03:17:28.909Z,14.84
2023-05-22T03:18:29.942Z,14.82
2023-05-22T03:19:31.979Z,14.81
2023-05-22T03:20:33.430Z,14.8
2023-05-22T03:21:35.141Z,14.8
2023-05-22T03:22:36.904Z,14.79
2023-05-22T03:23:38.589Z,14.79
2023-05-22T03:24:40.334Z,14.77
2023-05-22T03:25:42.136Z,14.77
2023-05-22T03:26:44.077Z,14.76
2023-05-22T03:27:45.541Z,14.74
2023-05-22T03:28:47.347Z,14.74
2023-05-22T03:29:49.027Z,14.74
2023-05-22T03:30:50.755Z,14.72
2023-05-22T03:31:52.469Z,14.71
2023-05-22T03:32:54.260Z,14.69
2023-05-22T03:33:56.004Z,14.69
2023-05-22T03:34:57.708Z,14.68
2023-05-22T03:35:59.409Z,14.66
2023-05-22T03:37:01.158Z,14.66
2023-05-22T03:38:02.881Z,14.65
2023-05-22T03:39:04.634Z,14.64
2023-05-22T03:40:06.350Z,14.64
2023-05-22T03:41:08.067Z,14.63
2023-05-22T03:42:09.843Z,14.63
2023-05-22T03:43:11.589Z,14.62
2023-05-22T03:44:13.294Z,14.62
2023-05-22T03:45:15.265Z,14.61
2023-05-22T03:46:16.817Z,14.6
2023-05-22T03:47:18.502Z,14.6
2023-05-22T03:48:20.208Z,14.59
2023-05-22T03:49:21.948Z,14.59
2023-05-22T03:50:23.691Z,14.58
2023-05-22T03:51:25.413Z,14.56
2023-05-22T03:52:27.151Z,14.56
2023-05-22T03:53:28.918Z,14.55
2023-05-22T03:54:30.619Z,14.54
2023-05-22T03:55:32.355Z,14.54
2023-05-22T03:56:34.105Z,14.53
2023-05-22T03:57:35.849Z,14.52
2023-05-22T03:58:37.551Z,14.52
2023-05-22T03:59:39.295Z,14.52
2023-05-22T04:00:41.130Z,14.53
2023-05-22T04:01:42.756Z,14.53
2023-05-22T04:02:44.665Z,14.54
2023-05-22T04:03:46.260Z,14.55
2023-05-22T04:04:48.077Z,14.57
2023-05-22T04:05:49.721Z,14.57
2023-05-22T04:06:51.427Z,14.58
2023-05-22T04:07:53.163Z,14.6
2023-05-22T04:08:54.889Z,14.6
2023-05-22T04:09:56.653Z,14.61
2023-05-22T04:10:58.361Z,14.62
2023-05-22T04:12:00.121Z,14.62
2023-05-22T04:13:01.810Z,14.63
2023-05-22T04:14:03.565Z,14.64
2023-05-22T04:15:05.369Z,14.65
2023-05-22T04:16:07.092Z,14.65
2023-05-22T04:17:08.770Z,14.66
2023-05-22T04:18:10.539Z,14.66
2023-05-22T04:19:12.265Z,14.66
2023-05-22T04:20:13.963Z,14.66
2023-05-22T04:21:15.712Z,14.67
2023-05-22T04:22:17.437Z,14.67
2023-05-22T04:23:19.182Z,14.65
2023-05-22T04:24:20.922Z,14.65
2023-05-22T04:25:22.656Z,14.64
2023-05-22T04:26:24.399Z,14.63
2023-05-22T04:27:26.109Z,14.62
2023-05-22T04:28:27.846Z,14.61
2023-05-22T04:29:29.627Z,14.59
2023-05-22T04:30:31.307Z,14.59
2023-05-22T04:31:33.080Z,14.58
2023-05-22T04:32:34.808Z,14.56
2023-05-22T04:33:36.523Z,14.56
2023-05-22T04:34:38.569Z,14.56
2023-05-22T04:35:40.163Z,14.55
2023-05-22T04:36:41.723Z,14.54
2023-05-22T04:37:43.456Z,14.54
2023-05-22T04:38:45.181Z,14.53
2023-05-22T04:39:46.908Z,14.53
2023-05-22T04:40:48.664Z,14.53
2023-05-22T04:41:50.377Z,14.53
2023-05-22T04:42:52.108Z,14.52
2023-05-22T04:43:53.859Z,14.51
2023-05-22T04:44:55.596Z,14.52
2023-05-22T04:45:57.325Z,14.52
2023-05-22T04:46:59.387Z,14.52
2023-05-22T04:48:00.810Z,14.52
2023-05-22T04:49:02.567Z,14.52
2023-05-22T04:50:04.259Z,14.53
2023-05-22T04:51:06.005Z,14.54
2023-05-22T04:52:07.736Z,14.55
2023-05-22T04:53:09.643Z,14.57
2023-05-22T04:54:11.194Z,14.58
2023-05-22T04:55:12.937Z,14.6
2023-05-22T04:56:18.641Z,14.61
2023-05-22T04:57:16.417Z,14.63
2023-05-22T04:58:18.125Z,14.65
2023-05-22T04:59:19.856Z,14.67
2023-05-22T05:00:21.611Z,14.69
2023-05-22T05:01:23.413Z,14.71
2023-05-22T05:02:25.192Z,14.73
2023-05-22T05:03:26.805Z,14.75
2023-05-22T05:04:28.527Z,14.78
2023-05-22T05:05:30.265Z,14.8
2023-05-22T05:06:31.990Z,14.83
2023-05-22T05:07:33.733Z,14.85
2023-05-22T05:08:35.505Z,14.87
2023-05-22T05:09:37.205Z,14.9
2023-05-22T05:10:39.075Z,14.92
2023-05-22T05:11:40.663Z,14.94
2023-05-22T05:12:42.405Z,14.98
2023-05-22T05:13:44.356Z,15.02
2023-05-22T05:14:45.856Z,15.07
2023-05-22T05:15:47.616Z,15.1
2023-05-22T05:16:49.351Z,15.14
2023-05-22T05:17:51.186Z,15.18
2023-05-22T05:18:52.804Z,15.22
2023-05-22T05:19:54.527Z,15.26
2023-05-22T05:20:56.253Z,15.3
2023-05-22T05:21:58.003Z,15.35
2023-05-22T05:22:59.760Z,15.39
2023-05-22T05:24:01.476Z,15.44
2023-05-22T05:25:03.221Z,15.48
2023-05-22T05:26:04.954Z,15.51
2023-05-22T05:27:06.687Z,15.57
2023-05-22T05:28:08.617Z,15.61
2023-05-22T05:29:10.153Z,15.65
2023-05-22T05:30:11.883Z,15.7
2023-05-22T05:31:13.598Z,15.74
2023-05-22T05:32:15.372Z,15.79
2023-05-22T05:33:17.090Z,15.84
2023-05-22T05:34:18.795Z,15.88
2023-05-22T05:35:20.539Z,15.94
2023-05-22T05:36:22.296Z,15.98
2023-05-22T05:37:24.088Z,16.04
2023-05-22T05:38:25.817Z,16.1
2023-05-22T05:39:27.489Z,16.14
2023-05-22T05:40:29.220Z,16.18
2023-05-22T05:41:30.956Z,16.22
2023-05-22T05:42:32.688Z,16.26
2023-05-22T05:43:34.423Z,16.31
2023-05-22T05:44:36.138Z,16.37
2023-05-22T05:45:37.895Z,16.42
2023-05-22T05:46:39.744Z,16.47
2023-05-22T05:47:41.537Z,16.52
2023-05-22T05:48:43.096Z,16.57
2023-05-22T05:49:44.840Z,16.61
2023-05-22T05:50:46.564Z,16.66
2023-05-22T05:51:48.293Z,16.71
2023-05-22T05:52:50.030Z,16.75
2023-05-22T05:53:51.786Z,16.8
2023-05-22T05:54:53.522Z,16.86
2023-05-22T05:55:55.216Z,16.92
2023-05-22T05:56:56.964Z,16.99
2023-05-22T05:57:58.700Z,17.05
2023-05-22T05:59:00.452Z,17.13
2023-05-22T06:00:02.181Z,17.18
2023-05-22T06:01:03.927Z,17.25
2023-05-22T06:02:05.672Z,17.32
2023-05-22T06:03:07.506Z,17.39
2023-05-22T06:04:09.145Z,17.47
2023-05-22T06:05:10.852Z,17.53
2023-05-22T06:06:12.585Z,17.6
2023-05-22T06:07:14.322Z,17.68
2023-05-22T06:08:16.056Z,17.73
2023-05-22T06:09:17.810Z,17.8
2023-05-22T06:10:19.517Z,17.86
2023-05-22T06:11:21.242Z,17.91
2023-05-22T06:12:22.971Z,17.97
2023-05-22T06:13:24.720Z,18.02
2023-05-22T06:14:26.346Z,18.07
2023-05-22T06:15:28.069Z,18.13
2023-05-22T06:16:29.930Z,18.16
2023-05-22T06:17:31.555Z,18.21
2023-05-22T06:18:33.265Z,18.26
2023-05-22T06:19:35.143Z,18.31
2023-05-22T06:20:36.804Z,18.35
2023-05-22T06:21:38.540Z,18.41
2023-05-22T06:22:40.182Z,18.45
2023-05-22T06:23:41.932Z,18.51
2023-05-22T06:24:43.796Z,18.56
2023-05-22T06:25:45.402Z,18.62
2023-05-22T06:26:47.152Z,18.66
2023-05-22T06:27:48.852Z,18.71
2023-05-22T06:28:50.595Z,18.73
2023-05-22T06:29:52.348Z,18.75
2023-05-22T06:30:54.053Z,18.78
2023-05-22T06:31:55.838Z,18.81
2023-05-22T06:32:57.603Z,18.84
2023-05-22T06:33:59.519Z,18.89
2023-05-22T06:35:01.022Z,18.95
2023-05-22T06:36:02.753Z,19.01
2023-05-22T06:37:04.512Z,19.08
2023-05-22T06:38:06.195Z,19.15
2023-05-22T06:39:07.952Z,19.2
2023-05-22T06:40:09.685Z,19.27
2023-05-22T06:41:11.568Z,19.33
2023-05-22T06:42:13.171Z,19.39
2023-05-22T06:43:14.882Z,19.42
2023-05-22T06:44:16.611Z,19.48
2023-05-22T06:45:18.350Z,19.54
2023-05-22T06:46:20.114Z,19.61
2023-05-22T06:47:21.859Z,19.66
2023-05-22T06:48:23.562Z,19.71
2023-05-22T06:49:25.331Z,19.78
2023-05-22T06:50:27.011Z,19.84
2023-05-22T06:51:29.070Z,19.86
2023-05-22T06:52:31.657Z,19.93
2023-05-22T06:53:32.226Z,19.95
2023-05-22T06:54:33.960Z,20
2023-05-22T06:55:35.718Z,20.04
2023-05-22T06:56:37.453Z,20.08
2023-05-22T06:57:39.179Z,20.13
2023-05-22T06:58:40.905Z,20.19
2023-05-22T06:59:42.648Z,20.25
2023-05-22T07:00:44.389Z,20.33
2023-05-22T07:01:47.655Z,20.39
2023-05-22T07:02:47.869Z,20.44
2023-05-22T07:03:49.623Z,20.51
2023-05-22T07:04:51.362Z,20.57
2023-05-22T07:05:53.082Z,20.63
2023-05-22T07:06:54.933Z,20.68
2023-05-22T07:07:58.083Z,20.74
2023-05-22T07:08:58.240Z,20.8
2023-05-22T07:10:03.010Z,20.85
2023-05-22T07:11:04.745Z,20.91
2023-05-22T07:12:06.638Z,20.96
2023-05-22T07:13:08.199Z,21.02
2023-05-22T07:14:09.921Z,21.07
2023-05-22T07:15:12.940Z,21.1
2023-05-22T07:16:13.614Z,21.15
2023-05-22T07:17:15.137Z,21.18
2023-05-22T07:18:16.868Z,21.23
2023-05-22T07:19:18.043Z,21.25
2023-05-22T07:20:20.340Z,21.31
2023-05-22T07:21:22.051Z,21.34
2023-05-22T07:22:23.793Z,21.36
2023-05-22T07:23:26.330Z,21.39
2023-05-22T07:24:27.275Z,21.41
2023-05-22T07:25:28.999Z,21.43
2023-05-22T07:26:30.755Z,21.42
2023-05-22T07:27:32.621Z,21.44
2023-05-22T07:28:34.195Z,21.45
2023-05-22T07:29:35.933Z,21.47
2023-05-22T07:30:37.973Z,21.49
2023-05-22T07:31:39.494Z,21.51
2023-05-22T07:32:41.249Z,21.53
2023-05-22T07:33:44.062Z,21.54
2023-05-22T07:34:44.595Z,21.56
2023-05-22T07:35:46.320Z,21.54
2023-05-22T07:37:03.534Z,21.57
2023-05-22T07:38:05.258Z,21.58
2023-05-22T07:39:07.005Z,21.6
2023-05-22T07:40:09.997Z,21.64
2023-05-22T07:41:11.782Z,21.65
2023-05-22T07:42:12.191Z,21.69
2023-05-22T07:43:13.901Z,21.72
2023-05-22T07:44:15.763Z,21.74
2023-05-22T07:45:17.374Z,21.75
2023-05-22T07:46:19.140Z,21.76
2023-05-22T07:47:20.895Z,21.76
2023-05-22T07:48:22.610Z,21.78
2023-05-22T07:49:24.331Z,21.79
2023-05-22T07:50:31.400Z,21.8
2023-05-22T07:51:33.000Z,21.81
2023-05-22T07:52:34.791Z,21.83
2023-05-22T07:53:36.449Z,21.84
2023-05-22T07:54:39.891Z,21.83
2023-05-22T07:55:40.187Z,21.83
2023-05-22T07:56:41.679Z,21.83
2023-05-22T07:57:43.338Z,21.83
2023-05-22T07:59:26.423Z,21.82
2023-05-22T08:00:51.756Z,21.81
2023-05-22T08:01:58.697Z,21.79
2023-05-22T08:03:00.975Z,21.78
2023-05-22T08:04:02.481Z,21.77
2023-05-22T08:05:25.076Z,21.76
2023-05-22T08:06:26.798Z,21.75
2023-05-22T08:07:28.542Z,21.74
2023-05-22T08:08:32.163Z,21.74
2023-05-22T08:09:37.260Z,21.74
2023-05-22T08:11:40.717Z,21.75
2023-05-22T08:12:52.099Z,21.74
2023-05-22T08:13:55.093Z,21.74
2023-05-22T08:14:56.769Z,21.75
2023-05-22T08:16:02.944Z,21.75
2023-05-22T08:17:10.886Z,21.75
2023-05-22T08:18:12.280Z,21.75
2023-05-22T08:19:15.259Z,21.75
2023-05-22T08:20:26.316Z,21.74
2023-05-22T08:21:27.771Z,21.74
2023-05-22T08:22:28.823Z,21.74
2023-05-22T08:23:32.589Z,21.74
2023-05-22T08:24:33.079Z,21.75
2023-05-22T08:25:38.955Z,21.75
2023-05-22T08:26:52.199Z,21.75
2023-05-22T08:27:54.527Z,21.78
2023-05-22T08:28:56.169Z,21.8
2023-05-22T08:29:56.439Z,21.81
2023-05-22T08:31:03.645Z,21.82
2023-05-22T08:32:09.408Z,21.85
2023-05-22T08:33:13.141Z,21.87
2023-05-22T08:34:13.692Z,21.9
2023-05-22T08:35:15.874Z,21.92
2023-05-22T08:36:16.471Z,21.96
2023-05-22T08:37:18.891Z,21.99
2023-05-22T08:38:23.313Z,22.01
2023-05-22T08:39:25.062Z,22.03
2023-05-22T08:40:26.769Z,22.05
2023-05-22T08:41:49.360Z,22.09
2023-05-22T08:42:55.294Z,22.1
2023-05-22T08:44:13.845Z,22.13
2023-05-22T08:46:03.747Z,22.17
2023-05-22T08:47:08.160Z,22.21
2023-05-22T08:48:16.259Z,22.24
2023-05-22T08:49:16.718Z,22.28
2023-05-22T08:50:20.769Z,22.32
2023-05-22T08:51:22.528Z,22.33
2023-05-22T08:52:34.958Z,22.36
2023-05-22T08:54:29.237Z,22.4
2023-05-22T08:55:51.278Z,22.43
2023-05-22T08:57:12.733Z,22.44
2023-05-22T08:58:14.830Z,22.46
2023-05-22T08:59:21.065Z,22.48
2023-05-22T09:00:49.736Z,22.54
2023-05-22T09:01:54.520Z,22.56
2023-05-22T09:02:58.394Z,22.57
2023-05-22T09:04:07.811Z,22.58
2023-05-22T09:05:15.421Z,22.6
2023-05-22T09:06:37.575Z,22.62
2023-05-22T09:07:39.288Z,22.61
2023-05-22T09:08:40.078Z,22.62
2023-05-22T09:09:42.999Z,22.63
2023-05-22T09:10:47.935Z,22.65
2023-05-22T09:11:48.346Z,22.64
2023-05-22T09:13:01.088Z,22.65
2023-05-22T09:14:02.872Z,22.66
2023-05-22T09:16:09.104Z,22.68
2023-05-22T09:18:17.653Z,22.66
2023-05-22T09:19:20.354Z,22.66
2023-05-22T09:20:42.029Z,22.67
2023-05-22T09:22:04.501Z,22.68
2023-05-22T09:23:11.158Z,22.69
2023-05-22T09:24:12.938Z,22.7
2023-05-22T09:25:27.995Z,22.72
2023-05-22T09:26:29.167Z,22.73
2023-05-22T09:28:06.802Z,22.75
2023-05-22T09:29:13.799Z,22.75
2023-05-22T09:30:33.226Z,22.76
2023-05-22T09:32:01.021Z,22.78
2023-05-22T09:33:11.542Z,22.79
2023-05-22T09:34:40.345Z,22.82
2023-05-22T09:35:42.295Z,22.85
2023-05-22T09:36:43.800Z,22.9
2023-05-22T09:37:44.868Z,22.94
2023-05-22T09:39:00.877Z,23
2023-05-22T09:40:06.635Z,23.06
2023-05-22T09:41:07.027Z,23.11
2023-05-22T09:42:07.690Z,23.2
2023-05-22T09:43:35.121Z,23.28
2023-05-22T09:44:35.758Z,23.36
2023-05-22T09:45:38.515Z,23.43
2023-05-22T09:46:39.138Z,23.5
2023-05-22T09:47:40.917Z,23.57
2023-05-22T09:48:42.866Z,23.63
2023-05-22T09:49:48.409Z,23.65
2023-05-22T09:50:51.563Z,23.66
2023-05-22T09:51:57.386Z,23.68
2023-05-22T09:53:36.161Z,23.74
2023-05-22T09:54:39.970Z,23.78
2023-05-22T09:55:46.838Z,23.82
2023-05-22T09:56:59.833Z,23.86
2023-05-22T09:58:00.393Z,23.88
2023-05-22T09:59:37.814Z,23.95
2023-05-22T10:00:46.534Z,23.99
2023-05-22T10:01:55.146Z,24.02
2023-05-22T10:03:06.908Z,24.06
2023-05-22T10:04:46.081Z,24.06
2023-05-22T10:05:46.878Z,24.08
2023-05-22T10:07:18.948Z,24.11
2023-05-22T10:08:33.071Z,24.11
2023-05-22T10:09:39.772Z,24.13
2023-05-22T10:10:41.735Z,24.14
2023-05-22T10:11:44.445Z,24.21
2023-05-22T10:13:18.067Z,24.23
2023-05-22T10:14:58.421Z,24.24
2023-05-22T10:16:40.600Z,24.25
2023-05-22T10:18:42.967Z,24.26
2023-05-22T10:21:20.525Z,24.21
2023-05-22T10:22:29.415Z,24.21
2023-05-22T10:23:31.159Z,24.19
2023-05-22T10:24:40.321Z,24.19
2023-05-22T10:26:14.057Z,24.25
2023-05-22T10:28:02.152Z,24.38
2023-05-22T10:29:34.896Z,24.48
2023-05-22T10:30:58.490Z,24.55
2023-05-22T10:32:07.361Z,24.57
2023-05-22T10:33:17.374Z,24.61
2023-05-22T10:34:47.741Z,24.68
2023-05-22T10:35:51.903Z,24.7
2023-05-22T10:36:58.197Z,24.72
2023-05-22T10:37:59.049Z,24.74
2023-05-22T10:39:29.127Z,24.84
2023-05-22T10:41:02.152Z,24.93
2023-05-22T10:42:05.693Z,25
2023-05-22T10:43:29.137Z,25.06
2023-05-22T10:44:33.894Z,25.16
2023-05-22T10:46:12.635Z,25.27
2023-05-22T10:47:14.124Z,25.36
2023-05-22T10:48:26.112Z,25.42
2023-05-22T10:49:26.702Z,25.47
2023-05-22T10:50:28.552Z,25.53
2023-05-22T10:51:41.123Z,25.56
2023-05-22T10:53:21.204Z,25.64
2023-05-22T10:54:22.770Z,25.66
2023-05-22T10:55:26.261Z,25.68
2023-05-22T10:56:34.316Z,25.71
2023-05-22T10:58:04.944Z,25.74
2023-05-22T10:59:08.945Z,25.76
2023-05-22T11:00:57.577Z,25.8
2023-05-22T11:04:46.952Z,25.93
2023-05-22T11:05:50.066Z,25.95
2023-05-22T11:07:08.510Z,25.99
2023-05-22T11:08:30.920Z,26.04
2023-05-22T11:09:37.051Z,26.08
2023-05-22T11:10:40.015Z,26.11
2023-05-22T11:11:44.259Z,26.14
2023-05-22T11:12:47.361Z,26.17
2023-05-22T11:15:07.213Z,26.25
2023-05-22T11:16:07.768Z,26.29
2023-05-22T11:17:12.733Z,26.34
2023-05-22T11:18:13.992Z,26.38
2023-05-22T11:20:34.311Z,26.48
2023-05-22T11:21:38.266Z,26.54
2023-05-22T11:22:57.079Z,26.59
2023-05-22T11:24:40.766Z,26.63
2023-05-22T11:26:48.900Z,26.69
2023-05-22T11:27:56.313Z,26.71
2023-05-22T11:29:06.631Z,26.74
2023-05-22T11:30:25.498Z,26.75
2023-05-22T11:31:32.772Z,26.77
2023-05-22T11:32:51.881Z,26.79
2023-05-22T11:34:07.447Z,26.83
2023-05-22T11:35:09.834Z,26.84
2023-05-22T11:36:18.056Z,26.84
2023-05-22T11:37:38.330Z,26.82
2023-05-22T11:38:39.168Z,26.83
2023-05-22T11:39:40.482Z,26.81
2023-05-22T11:40:46.329Z,26.81
2023-05-22T11:42:16.972Z,26.77
2023-05-22T11:43:21.175Z,26.76
2023-05-22T11:44:24.763Z,26.73
2023-05-22T11:45:25.395Z,26.71
2023-05-22T11:46:37.616Z,26.66
2023-05-22T11:47:39.396Z,26.63
2023-05-22T11:49:10.572Z,26.6
2023-05-22T11:50:17.912Z,26.57
2023-05-22T11:51:28.805Z,26.56
2023-05-22T11:52:36.173Z,26.49
2023-05-22T11:54:39.055Z,26.47
2023-05-22T11:56:16.030Z,26.44
2023-05-22T11:57:16.851Z,26.43
2023-05-22T11:59:05.677Z,26.39
2023-05-22T12:00:16.743Z,26.36
2023-05-22T12:01:54.519Z,26.34
2023-05-22T12:03:08.394Z,26.32
2023-05-22T12:05:02.947Z,26.3
2023-05-22T12:06:13.972Z,26.3
2023-05-22T12:07:15.743Z,26.3
2023-05-22T12:08:25.698Z,26.31
2023-05-22T12:09:33.368Z,26.32
2023-05-22T12:11:11.559Z,26.34
2023-05-22T12:12:13.346Z,26.37
2023-05-22T12:14:09.425Z,26.4
2023-05-22T12:15:30.380Z,26.42
2023-05-22T12:17:15.613Z,26.47
2023-05-22T12:18:17.366Z,26.5
2023-05-22T12:19:42.323Z,26.55
2023-05-22T12:20:59.553Z,26.59
2023-05-22T12:22:09.274Z,26.63
2023-05-22T12:23:34.496Z,26.66
2023-05-22T12:25:07.146Z,26.7
2023-05-22T12:26:26.252Z,26.72
2023-05-22T12:27:32.673Z,26.78
2023-05-22T12:30:11.422Z,26.9
2023-05-22T12:32:37.481Z,27.01
2023-05-22T12:37:16.367Z,27.22
2023-05-22T12:39:28.766Z,27.34
2023-05-22T12:41:33.901Z,27.49
2023-05-22T12:47:15.912Z,27.96
2023-05-22T12:48:33.914Z,28.03
2023-05-22T12:49:39.872Z,28.12
2023-05-22T12:51:33.860Z,28.27
2023-05-22T12:53:05.456Z,28.4
2023-05-22T12:57:17.131Z,28.6
2023-05-22T12:59:25.582Z,28.71
2023-05-22T13:02:01.947Z,28.67
2023-05-22T13:03:07.604Z,28.63
2023-05-22T13:09:38.178Z,28.2
2023-05-22T13:11:50.455Z,28.12
2023-05-22T13:13:07.812Z,28.11
2023-05-22T13:14:16.603Z,28.1
2023-05-22T13:16:11.205Z,28.11
2023-05-22T13:17:52.408Z,28.09
2023-05-22T13:18:56.047Z,28.08
2023-05-22T13:19:58.549Z,28.08
2023-05-22T13:22:21.681Z,28.08
2023-05-22T13:24:13.646Z,28.07
2023-05-22T13:27:59.125Z,28.09
2023-05-22T13:29:24.422Z,28.12
2023-05-22T13:30:25.707Z,28.15
2023-05-22T13:32:01.767Z,28.13
2023-05-22T13:34:00.958Z,28.1
2023-05-22T13:35:01.853Z,28.11
2023-05-22T13:36:02.336Z,28.1
2023-05-22T13:37:07.022Z,28.08
2023-05-22T13:39:40.133Z,28.06
2023-05-22T13:40:40.897Z,28.08
2023-05-22T13:44:32.916Z,28.14
2023-05-22T13:45:35.413Z,28.17
2023-05-22T13:47:31.824Z,28.25
2023-05-22T13:48:31.919Z,28.25
2023-05-22T13:49:50.730Z,28.27
2023-05-22T13:51:14.677Z,28.3
2023-05-22T13:54:45.678Z,28.36
2023-05-22T13:57:25.110Z,28.44
2023-05-22T13:59:00.338Z,28.48
2023-05-22T14:01:09.876Z,28.52
2023-05-22T14:03:23.384Z,28.54
2023-05-22T14:04:29.207Z,28.55
2023-05-22T14:05:41.363Z,28.55
2023-05-22T14:07:01.723Z,28.54
2023-05-22T14:08:42.242Z,28.55
2023-05-22T14:09:44.160Z,28.54
2023-05-22T14:11:14.005Z,28.55
2023-05-22T14:14:02.387Z,28.55
2023-05-22T14:15:36.211Z,28.55
2023-05-22T14:18:15.510Z,28.57
2023-05-22T14:20:36.430Z,28.59
2023-05-22T14:21:40.800Z,28.61
2023-05-22T14:25:21.310Z,28.57
2023-05-22T14:26:23.010Z,28.51
2023-05-22T14:27:24.762Z,28.46
2023-05-22T14:28:26.483Z,28.41
2023-05-22T14:29:28.222Z,28.3
2023-05-22T14:30:30.057Z,28.2
2023-05-22T14:31:31.997Z,28.11
2023-05-22T14:32:33.441Z,27.99
2023-05-22T14:33:35.317Z,27.91
2023-05-22T14:34:36.895Z,27.83
2023-05-22T14:35:38.817Z,27.75
2023-05-22T14:36:40.343Z,27.69
2023-05-22T14:37:42.089Z,27.64
2023-05-22T14:38:43.827Z,27.59
2023-05-22T14:39:45.622Z,27.56
2023-05-22T14:40:47.283Z,27.53
2023-05-22T14:41:49.005Z,27.52
2023-05-22T14:42:53.901Z,27.51
2023-05-22T14:43:52.499Z,27.5
2023-05-22T14:44:54.245Z,27.49
2023-05-22T14:45:56.076Z,27.48
2023-05-22T14:46:57.674Z,27.47
2023-05-22T14:47:59.495Z,27.46
2023-05-22T14:49:01.149Z,27.46
2023-05-22T14:50:18.092Z,27.46
2023-05-22T14:51:04.604Z,27.47
2023-05-22T14:52:06.342Z,27.47
2023-05-22T14:53:08.118Z,27.45
2023-05-22T14:54:10.256Z,27.44
2023-05-22T14:55:11.578Z,27.43
2023-05-22T14:56:13.306Z,27.41
2023-05-22T14:57:15.007Z,27.39
2023-05-22T14:58:16.941Z,27.37
2023-05-22T14:59:18.478Z,27.35
2023-05-22T15:00:20.305Z,27.33
2023-05-22T15:01:22.028Z,27.3
2023-05-22T15:02:24.948Z,27.29
2023-05-22T15:03:25.443Z,27.28
2023-05-22T15:04:27.181Z,27.27
2023-05-22T15:05:28.904Z,27.25
2023-05-22T15:06:30.632Z,27.22
2023-05-22T15:07:42.933Z,27.2
2023-05-22T15:08:34.099Z,27.18